sensor_id;sensor_type;location;lat;lon;timestamp;temperature;humidity
66586;SHT30;53444;45.822;16.092;2023-06-22T00:02:15;26.12;62.44
66586;SHT30;53444;45.822;16.092;2023-06-22T00:04:42;26.12;62.38
66586;SHT30;53444;45.822;16.092;2023-06-22T00:07:09;26.08;62.32
66586;SHT30;53444;45.822;16.092;2023-06-22T00:09:35;26.06;62.36
66586;SHT30;53444;45.822;16.092;2023-06-22T00:12:03;25.92;62.75
66586;SHT30;53444;45.822;16.092;2023-06-22T00:14:29;25.80;63.25
66586;SHT30;53444;45.822;16.092;2023-06-22T00:16:57;25.84;63.27
66586;SHT30;53444;45.822;16.092;2023-06-22T00:19:24;25.77;63.26
66586;SHT30;53444;45.822;16.092;2023-06-22T00:21:51;25.74;63.18
66586;SHT30;53444;45.822;16.092;2023-06-22T00:24:18;25.87;63.35
66586;SHT30;53444;45.822;16.092;2023-06-22T00:26:45;25.97;63.20
66586;SHT30;53444;45.822;16.092;2023-06-22T00:29:11;26.06;63.13
66586;SHT30;53444;45.822;16.092;2023-06-22T00:31:38;26.04;63.11
66586;SHT30;53444;45.822;16.092;2023-06-22T00:34:06;26.03;63.01
66586;SHT30;53444;45.822;16.092;2023-06-22T00:36:34;25.94;63.13
66586;SHT30;53444;45.822;16.092;2023-06-22T00:39:01;25.93;63.45
66586;SHT30;53444;45.822;16.092;2023-06-22T00:41:27;25.80;63.85
66586;SHT30;53444;45.822;16.092;2023-06-22T00:43:54;25.87;63.89
66586;SHT30;53444;45.822;16.092;2023-06-22T00:46:21;25.86;64.05
66586;SHT30;53444;45.822;16.092;2023-06-22T00:48:48;25.83;64.49
66586;SHT30;53444;45.822;16.092;2023-06-22T00:51:16;25.70;64.91
66586;SHT30;53444;45.822;16.092;2023-06-22T00:53:49;25.62;65.06
66586;SHT30;53444;45.822;16.092;2023-06-22T00:56:16;25.61;65.26
66586;SHT30;53444;45.822;16.092;2023-06-22T00:58:44;25.50;66.23
66586;SHT30;53444;45.822;16.092;2023-06-22T01:01:12;25.39;66.63
66586;SHT30;53444;45.822;16.092;2023-06-22T01:03:39;25.33;67.05
66586;SHT30;53444;45.822;16.092;2023-06-22T01:06:08;25.31;67.42
66586;SHT30;53444;45.822;16.092;2023-06-22T01:08:42;25.14;68.05
66586;SHT30;53444;45.822;16.092;2023-06-22T01:11:17;25.12;68.12
66586;SHT30;53444;45.822;16.092;2023-06-22T01:13:48;25.16;67.91
66586;SHT30;53444;45.822;16.092;2023-06-22T01:16:22;25.08;68.06
66586;SHT30;53444;45.822;16.092;2023-06-22T01:18:52;25.14;68.09
66586;SHT30;53444;45.822;16.092;2023-06-22T01:21:22;25.05;68.38
66586;SHT30;53444;45.822;16.092;2023-06-22T01:24:09;25.11;68.33
66586;SHT30;53444;45.822;16.092;2023-06-22T01:26:39;25.07;68.40
66586;SHT30;53444;45.822;16.092;2023-06-22T01:29:11;24.98;68.74
66586;SHT30;53444;45.822;16.092;2023-06-22T01:31:39;24.96;68.74
66586;SHT30;53444;45.822;16.092;2023-06-22T01:34:08;24.83;69.22
66586;SHT30;53444;45.822;16.092;2023-06-22T01:36:35;24.83;69.37
66586;SHT30;53444;45.822;16.092;2023-06-22T01:39:03;24.83;69.40
66586;SHT30;53444;45.822;16.092;2023-06-22T01:41:36;24.80;69.62
66586;SHT30;53444;45.822;16.092;2023-06-22T01:44:05;24.70;69.99
66586;SHT30;53444;45.822;16.092;2023-06-22T01:46:34;24.59;69.99
66586;SHT30;53444;45.822;16.092;2023-06-22T01:49:01;24.56;70.06
66586;SHT30;53444;45.822;16.092;2023-06-22T01:51:29;24.63;69.83
66586;SHT30;53444;45.822;16.092;2023-06-22T01:53:55;24.37;70.67
66586;SHT30;53444;45.822;16.092;2023-06-22T01:56:22;24.30;71.16
66586;SHT30;53444;45.822;16.092;2023-06-22T01:58:51;24.30;71.11
66586;SHT30;53444;45.822;16.092;2023-06-22T02:01:25;24.22;71.32
66586;SHT30;53444;45.822;16.092;2023-06-22T02:04:02;24.37;70.43
66586;SHT30;53444;45.822;16.092;2023-06-22T02:06:34;24.51;69.78
66586;SHT30;53444;45.822;16.092;2023-06-22T02:09:06;24.26;70.31
66586;SHT30;53444;45.822;16.092;2023-06-22T02:11:35;24.20;70.60
66586;SHT30;53444;45.822;16.092;2023-06-22T02:14:02;24.05;71.01
66586;SHT30;53444;45.822;16.092;2023-06-22T02:16:31;24.20;70.84
66586;SHT30;53444;45.822;16.092;2023-06-22T02:19:01;24.14;71.07
66586;SHT30;53444;45.822;16.092;2023-06-22T02:21:28;24.17;70.74
66586;SHT30;53444;45.822;16.092;2023-06-22T02:23:55;24.33;70.37
66586;SHT30;53444;45.822;16.092;2023-06-22T02:26:22;24.33;70.44
66586;SHT30;53444;45.822;16.092;2023-06-22T02:28:50;23.83;73.05
66586;SHT30;53444;45.822;16.092;2023-06-22T02:31:16;23.15;74.87
66586;SHT30;53444;45.822;16.092;2023-06-22T02:33:43;23.24;74.91
66586;SHT30;53444;45.822;16.092;2023-06-22T02:36:11;23.41;74.70
66586;SHT30;53444;45.822;16.092;2023-06-22T02:38:38;23.63;74.24
66586;SHT30;53444;45.822;16.092;2023-06-22T02:41:05;23.65;74.12
66586;SHT30;53444;45.822;16.092;2023-06-22T02:43:32;23.88;73.66
66586;SHT30;53444;45.822;16.092;2023-06-22T02:45:58;23.83;73.46
66586;SHT30;53444;45.822;16.092;2023-06-22T02:48:25;23.88;73.01
66586;SHT30;53444;45.822;16.092;2023-06-22T02:50:51;23.82;73.01
66586;SHT30;53444;45.822;16.092;2023-06-22T02:53:19;23.90;73.12
66586;SHT30;53444;45.822;16.092;2023-06-22T02:55:46;23.99;72.87
66586;SHT30;53444;45.822;16.092;2023-06-22T02:58:12;24.03;72.87
66586;SHT30;53444;45.822;16.092;2023-06-22T03:00:39;24.16;72.46
66586;SHT30;53444;45.822;16.092;2023-06-22T03:03:05;24.09;72.78
66586;SHT30;53444;45.822;16.092;2023-06-22T03:05:32;24.16;72.46
66586;SHT30;53444;45.822;16.092;2023-06-22T03:08:00;24.09;72.53
66586;SHT30;53444;45.822;16.092;2023-06-22T03:10:28;24.06;72.82
66586;SHT30;53444;45.822;16.092;2023-06-22T03:12:54;24.08;72.77
66586;SHT30;53444;45.822;16.092;2023-06-22T03:15:21;24.12;72.66
66586;SHT30;53444;45.822;16.092;2023-06-22T03:17:47;23.88;73.95
66586;SHT30;53444;45.822;16.092;2023-06-22T03:20:14;23.72;74.57
66586;SHT30;53444;45.822;16.092;2023-06-22T03:22:41;23.54;74.98
66586;SHT30;53444;45.822;16.092;2023-06-22T03:25:09;23.68;74.72
66586;SHT30;53444;45.822;16.092;2023-06-22T03:27:39;23.58;74.83
66586;SHT30;53444;45.822;16.092;2023-06-22T03:30:08;23.61;74.05
66586;SHT30;53444;45.822;16.092;2023-06-22T03:32:35;23.40;75.04
66586;SHT30;53444;45.822;16.092;2023-06-22T03:35:01;23.27;74.96
66586;SHT30;53444;45.822;16.092;2023-06-22T03:37:28;23.24;75.44
66586;SHT30;53444;45.822;16.092;2023-06-22T03:39:55;23.38;75.44
66586;SHT30;53444;45.822;16.092;2023-06-22T03:42:22;23.47;75.07
66586;SHT30;53444;45.822;16.092;2023-06-22T03:44:49;23.42;75.45
66586;SHT30;53444;45.822;16.092;2023-06-22T03:47:16;23.34;75.43
66586;SHT30;53444;45.822;16.092;2023-06-22T03:49:43;23.40;75.37
66586;SHT30;53444;45.822;16.092;2023-06-22T03:52:10;23.58;74.58
66586;SHT30;53444;45.822;16.092;2023-06-22T03:54:37;23.78;73.93
66586;SHT30;53444;45.822;16.092;2023-06-22T03:57:04;23.82;73.52
66586;SHT30;53444;45.822;16.092;2023-06-22T03:59:31;23.72;73.63
66586;SHT30;53444;45.822;16.092;2023-06-22T04:01:59;23.63;74.07
66586;SHT30;53444;45.822;16.092;2023-06-22T04:04:26;23.72;73.37
66586;SHT30;53444;45.822;16.092;2023-06-22T04:06:53;23.79;73.08
66586;SHT30;53444;45.822;16.092;2023-06-22T04:09:19;23.44;73.98
66586;SHT30;53444;45.822;16.092;2023-06-22T04:11:46;23.28;74.96
66586;SHT30;53444;45.822;16.092;2023-06-22T04:14:13;23.34;75.17
66586;SHT30;53444;45.822;16.092;2023-06-22T04:16:40;23.28;75.59
66586;SHT30;53444;45.822;16.092;2023-06-22T04:19:07;23.55;74.51
66586;SHT30;53444;45.822;16.092;2023-06-22T04:21:39;23.65;74.07
66586;SHT30;53444;45.822;16.092;2023-06-22T04:24:06;23.40;74.63
66586;SHT30;53444;45.822;16.092;2023-06-22T04:26:33;23.57;74.29
66586;SHT30;53444;45.822;16.092;2023-06-22T04:29:02;23.45;74.85
66586;SHT30;53444;45.822;16.092;2023-06-22T04:31:30;23.32;75.95
66586;SHT30;53444;45.822;16.092;2023-06-22T04:33:57;23.15;75.44
66586;SHT30;53444;45.822;16.092;2023-06-22T04:36:33;23.15;76.26
66586;SHT30;53444;45.822;16.092;2023-06-22T04:39:03;23.54;75.08
66586;SHT30;53444;45.822;16.092;2023-06-22T04:41:30;23.30;75.97
66586;SHT30;53444;45.822;16.092;2023-06-22T04:44:08;23.38;75.99
66586;SHT30;53444;45.822;16.092;2023-06-22T04:46:34;23.30;76.18
66586;SHT30;53444;45.822;16.092;2023-06-22T04:49:04;23.51;75.93
66586;SHT30;53444;45.822;16.092;2023-06-22T04:51:39;23.42;76.20
66586;SHT30;53444;45.822;16.092;2023-06-22T04:54:06;23.08;76.72
66586;SHT30;53444;45.822;16.092;2023-06-22T04:56:33;23.41;76.47
66586;SHT30;53444;45.822;16.092;2023-06-22T04:59:00;23.50;76.79
66586;SHT30;53444;45.822;16.092;2023-06-22T05:01:28;23.11;78.71
66586;SHT30;53444;45.822;16.092;2023-06-22T05:03:56;23.21;78.74
66586;SHT30;53444;45.822;16.092;2023-06-22T05:06:26;23.30;78.14
66586;SHT30;53444;45.822;16.092;2023-06-22T05:08:55;23.45;78.42
66586;SHT30;53444;45.822;16.092;2023-06-22T05:11:24;23.54;77.51
66586;SHT30;53444;45.822;16.092;2023-06-22T05:13:50;23.71;77.18
66586;SHT30;53444;45.822;16.092;2023-06-22T05:16:17;23.89;76.04
66586;SHT30;53444;45.822;16.092;2023-06-22T05:18:50;23.78;76.83
66586;SHT30;53444;45.822;16.092;2023-06-22T05:21:17;23.83;76.28
66586;SHT30;53444;45.822;16.092;2023-06-22T05:23:44;24.14;75.75
66586;SHT30;53444;45.822;16.092;2023-06-22T05:26:12;24.23;75.51
66586;SHT30;53444;45.822;16.092;2023-06-22T05:28:38;24.27;75.16
66586;SHT30;53444;45.822;16.092;2023-06-22T05:31:05;24.27;76.01
66586;SHT30;53444;45.822;16.092;2023-06-22T05:33:31;24.32;75.06
66586;SHT30;53444;45.822;16.092;2023-06-22T05:35:58;24.43;75.68
66586;SHT30;53444;45.822;16.092;2023-06-22T05:38:25;24.34;76.47
66586;SHT30;53444;45.822;16.092;2023-06-22T05:40:51;24.24;75.87
66586;SHT30;53444;45.822;16.092;2023-06-22T05:43:19;24.34;75.22
66586;SHT30;53444;45.822;16.092;2023-06-22T05:45:46;24.37;75.07
66586;SHT30;53444;45.822;16.092;2023-06-22T05:48:12;24.34;75.60
66586;SHT30;53444;45.822;16.092;2023-06-22T05:50:39;24.47;76.04
66586;SHT30;53444;45.822;16.092;2023-06-22T05:53:05;24.60;75.30
66586;SHT30;53444;45.822;16.092;2023-06-22T05:55:33;24.65;75.52
66586;SHT30;53444;45.822;16.092;2023-06-22T05:57:59;24.75;74.70
66586;SHT30;53444;45.822;16.092;2023-06-22T06:00:27;24.64;74.98
66586;SHT30;53444;45.822;16.092;2023-06-22T06:02:54;24.61;74.68
66586;SHT30;53444;45.822;16.092;2023-06-22T06:05:20;24.83;74.14
66586;SHT30;53444;45.822;16.092;2023-06-22T06:07:48;24.83;74.60
66586;SHT30;53444;45.822;16.092;2023-06-22T06:10:14;24.94;75.30
66586;SHT30;53444;45.822;16.092;2023-06-22T06:12:41;24.94;74.41
66586;SHT30;53444;45.822;16.092;2023-06-22T06:15:08;24.98;74.33
66586;SHT30;53444;45.822;16.092;2023-06-22T06:17:45;25.10;73.96
66586;SHT30;53444;45.822;16.092;2023-06-22T06:20:12;25.11;73.89
66586;SHT30;53444;45.822;16.092;2023-06-22T06:22:38;25.29;73.82
66586;SHT30;53444;45.822;16.092;2023-06-22T06:25:05;25.36;72.53
66586;SHT30;53444;45.822;16.092;2023-06-22T06:27:32;25.42;72.10
66586;SHT30;53444;45.822;16.092;2023-06-22T06:29:59;25.22;72.09
66586;SHT30;53444;45.822;16.092;2023-06-22T06:32:25;25.49;71.83
66586;SHT30;53444;45.822;16.092;2023-06-22T06:34:53;25.63;71.02
66586;SHT30;53444;45.822;16.092;2023-06-22T06:37:20;25.80;70.97
66586;SHT30;53444;45.822;16.092;2023-06-22T06:39:46;25.73;70.69
66586;SHT30;53444;45.822;16.092;2023-06-22T06:42:13;25.79;71.41
66586;SHT30;53444;45.822;16.092;2023-06-22T06:44:40;25.76;71.17
66586;SHT30;53444;45.822;16.092;2023-06-22T06:47:07;25.67;70.77
66586;SHT30;53444;45.822;16.092;2023-06-22T06:49:33;25.93;70.30
66586;SHT30;53444;45.822;16.092;2023-06-22T06:52:02;26.13;70.12
66586;SHT30;53444;45.822;16.092;2023-06-22T06:54:28;26.25;70.08
66586;SHT30;53444;45.822;16.092;2023-06-22T06:56:55;26.18;68.75
66586;SHT30;53444;45.822;16.092;2023-06-22T06:59:21;26.45;68.94
66586;SHT30;53444;45.822;16.092;2023-06-22T07:01:48;26.41;69.77
66586;SHT30;53444;45.822;16.092;2023-06-22T07:04:15;26.38;70.00
66586;SHT30;53444;45.822;16.092;2023-06-22T07:06:41;26.81;68.74
66586;SHT30;53444;45.822;16.092;2023-06-22T07:09:09;26.59;68.66
66586;SHT30;53444;45.822;16.092;2023-06-22T07:11:36;26.45;67.89
66586;SHT30;53444;45.822;16.092;2023-06-22T07:14:02;26.69;67.70
66586;SHT30;53444;45.822;16.092;2023-06-22T07:16:29;26.75;67.48
66586;SHT30;53444;45.822;16.092;2023-06-22T07:18:57;26.79;67.26
66586;SHT30;53444;45.822;16.092;2023-06-22T07:21:23;26.89;67.56
66586;SHT30;53444;45.822;16.092;2023-06-22T07:23:50;26.79;67.92
66586;SHT30;53444;45.822;16.092;2023-06-22T07:26:18;26.81;66.53
66586;SHT30;53444;45.822;16.092;2023-06-22T07:28:44;26.89;66.06
66586;SHT30;53444;45.822;16.092;2023-06-22T07:31:11;26.86;65.83
66586;SHT30;53444;45.822;16.092;2023-06-22T07:33:37;26.98;65.74
66586;SHT30;53444;45.822;16.092;2023-06-22T07:36:04;27.07;65.73
66586;SHT30;53444;45.822;16.092;2023-06-22T07:38:33;27.45;65.33
66586;SHT30;53444;45.822;16.092;2023-06-22T07:40:59;27.77;65.48
66586;SHT30;53444;45.822;16.092;2023-06-22T07:43:27;27.56;66.52
66586;SHT30;53444;45.822;16.092;2023-06-22T07:45:55;27.39;65.66
66586;SHT30;53444;45.822;16.092;2023-06-22T07:48:22;27.67;64.72
66586;SHT30;53444;45.822;16.092;2023-06-22T07:50:48;28.00;64.80
66586;SHT30;53444;45.822;16.092;2023-06-22T07:53:15;28.19;65.13
66586;SHT30;53444;45.822;16.092;2023-06-22T07:55:42;28.14;64.14
66586;SHT30;53444;45.822;16.092;2023-06-22T07:58:08;27.97;63.91
66586;SHT30;53444;45.822;16.092;2023-06-22T08:00:36;28.21;63.36
66586;SHT30;53444;45.822;16.092;2023-06-22T08:03:03;28.49;63.60
66586;SHT30;53444;45.822;16.092;2023-06-22T08:05:30;28.37;64.28
66586;SHT30;53444;45.822;16.092;2023-06-22T08:07:57;28.55;62.54
66586;SHT30;53444;45.822;16.092;2023-06-22T08:10:24;28.88;62.85
66586;SHT30;53444;45.822;16.092;2023-06-22T08:13:11;29.10;62.26
66586;SHT30;53444;45.822;16.092;2023-06-22T08:15:39;29.24;61.34
66586;SHT30;53444;45.822;16.092;2023-06-22T08:18:05;29.06;61.33
66586;SHT30;53444;45.822;16.092;2023-06-22T08:20:32;29.13;61.90
66586;SHT30;53444;45.822;16.092;2023-06-22T08:22:59;29.19;61.93
66586;SHT30;53444;45.822;16.092;2023-06-22T08:25:31;29.54;62.13
66586;SHT30;53444;45.822;16.092;2023-06-22T08:27:58;29.46;62.46
66586;SHT30;53444;45.822;16.092;2023-06-22T08:30:27;29.55;61.41
66586;SHT30;53444;45.822;16.092;2023-06-22T08:32:55;29.75;60.67
66586;SHT30;53444;45.822;16.092;2023-06-22T08:35:23;29.35;62.10
66586;SHT30;53444;45.822;16.092;2023-06-22T08:37:49;29.65;61.05
66586;SHT30;53444;45.822;16.092;2023-06-22T08:40:18;29.91;62.39
66586;SHT30;53444;45.822;16.092;2023-06-22T08:42:46;30.01;60.31
66586;SHT30;53444;45.822;16.092;2023-06-22T08:45:13;30.16;59.60
66586;SHT30;53444;45.822;16.092;2023-06-22T08:47:40;30.42;59.53
66586;SHT30;53444;45.822;16.092;2023-06-22T08:50:09;30.23;58.74
66586;SHT30;53444;45.822;16.092;2023-06-22T08:52:36;29.84;59.65
66586;SHT30;53444;45.822;16.092;2023-06-22T08:55:03;30.19;58.99
66586;SHT30;53444;45.822;16.092;2023-06-22T08:57:30;30.57;58.85
66586;SHT30;53444;45.822;16.092;2023-06-22T08:59:58;30.81;59.57
66586;SHT30;53444;45.822;16.092;2023-06-22T09:02:25;30.90;57.25
66586;SHT30;53444;45.822;16.092;2023-06-22T09:04:51;30.37;56.92
66586;SHT30;53444;45.822;16.092;2023-06-22T09:07:22;30.74;57.39
66586;SHT30;53444;45.822;16.092;2023-06-22T09:09:50;30.83;57.94
66586;SHT30;53444;45.822;16.092;2023-06-22T09:12:16;31.24;55.76
66586;SHT30;53444;45.822;16.092;2023-06-22T09:14:45;31.37;56.38
66586;SHT30;53444;45.822;16.092;2023-06-22T09:17:12;31.25;56.52
66586;SHT30;53444;45.822;16.092;2023-06-22T09:19:39;31.66;56.07
66586;SHT30;53444;45.822;16.092;2023-06-22T09:22:05;31.86;55.38
66586;SHT30;53444;45.822;16.092;2023-06-22T09:24:33;31.88;55.59
66586;SHT30;53444;45.822;16.092;2023-06-22T09:27:00;31.97;54.53
66586;SHT30;53444;45.822;16.092;2023-06-22T09:29:27;32.20;55.17
66586;SHT30;53444;45.822;16.092;2023-06-22T09:31:53;32.44;54.08
66586;SHT30;53444;45.822;16.092;2023-06-22T09:34:21;32.32;53.87
66586;SHT30;53444;45.822;16.092;2023-06-22T09:36:47;32.43;54.68
66586;SHT30;53444;45.822;16.092;2023-06-22T09:39:14;32.30;54.77
66586;SHT30;53444;45.822;16.092;2023-06-22T09:41:42;31.76;54.91
66586;SHT30;53444;45.822;16.092;2023-06-22T09:44:08;31.41;56.48
66586;SHT30;53444;45.822;16.092;2023-06-22T09:46:35;31.61;56.71
66586;SHT30;53444;45.822;16.092;2023-06-22T09:49:02;31.61;56.78
66586;SHT30;53444;45.822;16.092;2023-06-22T09:51:28;31.75;56.81
66586;SHT30;53444;45.822;16.092;2023-06-22T09:53:55;31.93;56.17
66586;SHT30;53444;45.822;16.092;2023-06-22T09:56:21;31.61;57.00
66586;SHT30;53444;45.822;16.092;2023-06-22T09:58:49;32.03;57.12
66586;SHT30;53444;45.822;16.092;2023-06-22T10:01:18;31.90;56.41
66586;SHT30;53444;45.822;16.092;2023-06-22T10:03:46;32.34;56.33
66586;SHT30;53444;45.822;16.092;2023-06-22T10:06:13;32.14;56.82
66586;SHT30;53444;45.822;16.092;2023-06-22T10:08:39;32.50;54.83
66586;SHT30;53444;45.822;16.092;2023-06-22T10:11:06;32.44;55.78
66586;SHT30;53444;45.822;16.092;2023-06-22T10:13:32;32.19;56.34
66586;SHT30;53444;45.822;16.092;2023-06-22T10:16:00;32.23;55.79
66586;SHT30;53444;45.822;16.092;2023-06-22T10:18:27;32.32;55.84
66586;SHT30;53444;45.822;16.092;2023-06-22T10:20:53;32.85;54.63
66586;SHT30;53444;45.822;16.092;2023-06-22T10:23:20;33.18;53.94
66586;SHT30;53444;45.822;16.092;2023-06-22T10:25:47;32.94;54.69
66586;SHT30;53444;45.822;16.092;2023-06-22T10:28:13;33.55;55.08
66586;SHT30;53444;45.822;16.092;2023-06-22T10:30:40;33.56;53.96
66586;SHT30;53444;45.822;16.092;2023-06-22T10:33:08;33.63;53.55
66586;SHT30;53444;45.822;16.092;2023-06-22T10:35:35;33.79;53.86
66586;SHT30;53444;45.822;16.092;2023-06-22T10:38:03;33.89;54.35
66586;SHT30;53444;45.822;16.092;2023-06-22T10:40:30;33.25;54.96
66586;SHT30;53444;45.822;16.092;2023-06-22T10:42:56;32.91;56.00
66586;SHT30;53444;45.822;16.092;2023-06-22T10:45:23;32.71;55.90
66586;SHT30;53444;45.822;16.092;2023-06-22T10:47:50;33.17;56.17
66586;SHT30;53444;45.822;16.092;2023-06-22T10:50:18;32.88;55.30
66586;SHT30;53444;45.822;16.092;2023-06-22T10:52:45;33.65;54.98
66586;SHT30;53444;45.822;16.092;2023-06-22T10:55:12;34.12;53.78
66586;SHT30;53444;45.822;16.092;2023-06-22T10:57:38;34.30;53.55
66586;SHT30;53444;45.822;16.092;2023-06-22T11:00:09;33.80;54.04
66586;SHT30;53444;45.822;16.092;2023-06-22T11:02:36;34.19;53.69
66586;SHT30;53444;45.822;16.092;2023-06-22T11:05:03;34.96;52.04
66586;SHT30;53444;45.822;16.092;2023-06-22T11:07:31;35.08;51.75
66586;SHT30;53444;45.822;16.092;2023-06-22T11:09:58;35.19;50.57
66586;SHT30;53444;45.822;16.092;2023-06-22T11:12:25;35.55;51.68
66586;SHT30;53444;45.822;16.092;2023-06-22T11:14:51;35.82;49.98
66586;SHT30;53444;45.822;16.092;2023-06-22T11:17:18;36.17;50.37
66586;SHT30;53444;45.822;16.092;2023-06-22T11:19:45;35.87;51.74
66586;SHT30;53444;45.822;16.092;2023-06-22T11:22:11;36.04;49.88
66586;SHT30;53444;45.822;16.092;2023-06-22T11:24:39;36.21;48.75
66586;SHT30;53444;45.822;16.092;2023-06-22T11:27:06;34.77;52.02
66586;SHT30;53444;45.822;16.092;2023-06-22T11:29:34;34.21;52.57
66586;SHT30;53444;45.822;16.092;2023-06-22T11:32:01;34.17;53.63
66586;SHT30;53444;45.822;16.092;2023-06-22T11:34:27;34.65;52.10
66586;SHT30;53444;45.822;16.092;2023-06-22T11:36:54;34.28;53.53
66586;SHT30;53444;45.822;16.092;2023-06-22T11:39:20;34.13;52.21
66586;SHT30;53444;45.822;16.092;2023-06-22T11:41:48;34.13;53.64
66586;SHT30;53444;45.822;16.092;2023-06-22T11:44:15;34.87;52.58
66586;SHT30;53444;45.822;16.092;2023-06-22T11:46:41;35.89;49.68
66586;SHT30;53444;45.822;16.092;2023-06-22T11:49:08;36.41;49.63
66586;SHT30;53444;45.822;16.092;2023-06-22T11:51:35;35.87;49.61
66586;SHT30;53444;45.822;16.092;2023-06-22T11:54:01;35.62;50.41
66586;SHT30;53444;45.822;16.092;2023-06-22T11:56:28;35.26;52.10
66586;SHT30;53444;45.822;16.092;2023-06-22T11:58:56;34.64;53.68
66586;SHT30;53444;45.822;16.092;2023-06-22T12:01:23;34.98;51.80
66586;SHT30;53444;45.822;16.092;2023-06-22T12:03:50;35.06;52.33
66586;SHT30;53444;45.822;16.092;2023-06-22T12:06:17;34.83;52.83
66586;SHT30;53444;45.822;16.092;2023-06-22T12:08:43;35.22;51.99
66586;SHT30;53444;45.822;16.092;2023-06-22T12:11:10;35.38;51.15
66586;SHT30;53444;45.822;16.092;2023-06-22T12:13:36;35.57;50.60
66586;SHT30;53444;45.822;16.092;2023-06-22T12:16:05;35.46;50.38
66586;SHT30;53444;45.822;16.092;2023-06-22T12:18:32;34.75;51.44
66586;SHT30;53444;45.822;16.092;2023-06-22T12:20:59;35.67;50.17
66586;SHT30;53444;45.822;16.092;2023-06-22T12:23:25;35.56;49.79
66586;SHT30;53444;45.822;16.092;2023-06-22T12:25:52;35.90;49.45
66586;SHT30;53444;45.822;16.092;2023-06-22T12:28:18;36.19;50.14
66586;SHT30;53444;45.822;16.092;2023-06-22T12:30:45;35.76;49.74
66586;SHT30;53444;45.822;16.092;2023-06-22T12:33:13;35.56;47.71
66586;SHT30;53444;45.822;16.092;2023-06-22T12:35:39;35.50;49.71
66586;SHT30;53444;45.822;16.092;2023-06-22T12:38:06;36.55;49.00
66586;SHT30;53444;45.822;16.092;2023-06-22T12:40:33;36.31;49.24
66586;SHT30;53444;45.822;16.092;2023-06-22T12:43:00;35.97;49.64
66586;SHT30;53444;45.822;16.092;2023-06-22T12:45:27;35.85;49.41
66586;SHT30;53444;45.822;16.092;2023-06-22T12:47:57;36.65;47.70
66586;SHT30;53444;45.822;16.092;2023-06-22T12:50:25;35.65;48.58
66586;SHT30;53444;45.822;16.092;2023-06-22T12:52:51;35.89;49.41
66586;SHT30;53444;45.822;16.092;2023-06-22T12:55:18;36.38;48.30
66586;SHT30;53444;45.822;16.092;2023-06-22T12:57:44;36.13;48.03
66586;SHT30;53444;45.822;16.092;2023-06-22T13:00:12;35.63;49.31
66586;SHT30;53444;45.822;16.092;2023-06-22T13:02:39;35.56;50.41
66586;SHT30;53444;45.822;16.092;2023-06-22T13:05:05;36.81;47.94
66586;SHT30;53444;45.822;16.092;2023-06-22T13:07:33;37.32;47.64
66586;SHT30;53444;45.822;16.092;2023-06-22T13:10:00;36.86;48.55
66586;SHT30;53444;45.822;16.092;2023-06-22T13:12:27;37.16;48.98
66586;SHT30;53444;45.822;16.092;2023-06-22T13:14:53;36.31;49.79
66586;SHT30;53444;45.822;16.092;2023-06-22T13:17:20;37.02;48.82
66586;SHT30;53444;45.822;16.092;2023-06-22T13:19:47;36.72;49.44
66586;SHT30;53444;45.822;16.092;2023-06-22T13:22:29;37.12;48.30
66586;SHT30;53444;45.822;16.092;2023-06-22T13:24:58;37.63;48.04
66586;SHT30;53444;45.822;16.092;2023-06-22T13:27:25;37.52;46.82
66586;SHT30;53444;45.822;16.092;2023-06-22T13:29:52;37.46;47.13
66586;SHT30;53444;45.822;16.092;2023-06-22T13:32:19;37.60;47.17
66586;SHT30;53444;45.822;16.092;2023-06-22T13:34:46;37.69;47.54
66586;SHT30;53444;45.822;16.092;2023-06-22T13:37:12;37.15;48.43
66586;SHT30;53444;45.822;16.092;2023-06-22T13:39:39;37.74;47.09
66586;SHT30;53444;45.822;16.092;2023-06-22T13:42:07;38.74;46.78
66586;SHT30;53444;45.822;16.092;2023-06-22T13:44:34;37.18;48.89
66586;SHT30;53444;45.822;16.092;2023-06-22T13:47:00;37.77;47.62
66586;SHT30;53444;45.822;16.092;2023-06-22T13:49:27;37.43;47.52
66586;SHT30;53444;45.822;16.092;2023-06-22T13:51:53;36.43;48.54
66586;SHT30;53444;45.822;16.092;2023-06-22T13:54:20;35.92;49.80
66586;SHT30;53444;45.822;16.092;2023-06-22T13:56:47;37.03;48.20
66586;SHT30;53444;45.822;16.092;2023-06-22T13:59:14;37.86;45.51
66586;SHT30;53444;45.822;16.092;2023-06-22T14:01:41;37.15;46.28
66586;SHT30;53444;45.822;16.092;2023-06-22T14:04:08;36.86;47.41
66586;SHT30;53444;45.822;16.092;2023-06-22T14:06:35;37.97;45.25
66586;SHT30;53444;45.822;16.092;2023-06-22T14:09:01;38.61;44.55
66586;SHT30;53444;45.822;16.092;2023-06-22T14:11:28;38.06;46.05
66586;SHT30;53444;45.822;16.092;2023-06-22T14:13:54;37.78;46.45
66586;SHT30;53444;45.822;16.092;2023-06-22T14:16:22;37.93;47.14
66586;SHT30;53444;45.822;16.092;2023-06-22T14:18:49;38.00;47.31
66586;SHT30;53444;45.822;16.092;2023-06-22T14:21:16;38.82;45.49
66586;SHT30;53444;45.822;16.092;2023-06-22T14:23:42;39.43;43.70
66586;SHT30;53444;45.822;16.092;2023-06-22T14:26:14;38.94;43.94
66586;SHT30;53444;45.822;16.092;2023-06-22T14:28:42;38.95;44.63
66586;SHT30;53444;45.822;16.092;2023-06-22T14:31:12;38.04;46.85
66586;SHT30;53444;45.822;16.092;2023-06-22T14:33:40;38.08;47.13
66586;SHT30;53444;45.822;16.092;2023-06-22T14:36:07;38.78;46.08
66586;SHT30;53444;45.822;16.092;2023-06-22T14:38:33;39.46;45.03
66586;SHT30;53444;45.822;16.092;2023-06-22T14:41:00;38.23;46.19
66586;SHT30;53444;45.822;16.092;2023-06-22T14:43:26;38.08;46.54
66586;SHT30;53444;45.822;16.092;2023-06-22T14:45:53;37.50;48.02
66586;SHT30;53444;45.822;16.092;2023-06-22T14:48:19;37.32;48.72
66586;SHT30;53444;45.822;16.092;2023-06-22T14:50:47;36.79;49.67
66586;SHT30;53444;45.822;16.092;2023-06-22T14:53:14;36.38;48.33
66586;SHT30;53444;45.822;16.092;2023-06-22T14:55:41;36.37;49.14
66586;SHT30;53444;45.822;16.092;2023-06-22T14:58:07;36.63;49.90
66586;SHT30;53444;45.822;16.092;2023-06-22T15:00:34;37.69;48.68
66586;SHT30;53444;45.822;16.092;2023-06-22T15:03:00;38.44;46.78
66586;SHT30;53444;45.822;16.092;2023-06-22T15:05:28;38.42;46.16
66586;SHT30;53444;45.822;16.092;2023-06-22T15:07:55;38.74;46.00
66586;SHT30;53444;45.822;16.092;2023-06-22T15:10:22;39.53;44.30
66586;SHT30;53444;45.822;16.092;2023-06-22T15:12:49;39.91;44.57
66586;SHT30;53444;45.822;16.092;2023-06-22T15:15:16;40.14;44.67
66586;SHT30;53444;45.822;16.092;2023-06-22T15:17:43;40.28;44.50